CheckWX is a tool to help pilots better visualize weather data.  It is not intended as a substitute for an official pre-flight weather briefing.

02:51:18 UTC

KRWF TAF
Redwood Falls Municipal Airport
Redwood Falls, Minnesota, USA
KRWF 220039Z 2201/2224 09026G38KT 3SM RA BR OVC012 TEMPO 2201/2205 1 1/2SM RA BR OVC008 FM220500 09024G34KT 5SM RA BR OVC008 FM221100 11016G23KT 5SM RA BR OVC006 FM221600 16014G21KT 6SM -RA BR OVC009 FM221900 20018G26KT P6SM OVC018

May-22@
01:00 UTC

May-22 @ 01:00 UTC

May-22@
05:00 UTC

May-22 @ 05:00 UTC

KRWF 220039Z 2201/2224 09026G38KT 3SM RA BR OVC012
Wind
  • 090° at 26 KTS
  • {Gusting to 38 KTS
Conditions
Rain, Mist
Cloud Levels
  • Overcast at 1,200' AGL

May-22@
01:00 UTC

May-22 @ 01:00 UTC

May-22@
05:00 UTC

May-22 @ 05:00 UTC

TEMPO 2201/2205 1 1/2SM RA BR OVC008

Temporary

Temporary Changes expected for less than half the time period

Conditions
Rain, Mist
Cloud Levels
  • Overcast at 800' AGL

May-22@
05:00 UTC

May-22 @ 05:00 UTC

May-22@
11:00 UTC

May-22 @ 11:00 UTC

FM220500 09024G34KT 5SM RA BR OVC008

From

From Standard forecast or significant change

Wind
  • 090° at 24 KTS
  • {Gusting to 34 KTS
Conditions
Rain, Mist
Cloud Levels
  • Overcast at 800' AGL

May-22@
11:00 UTC

May-22 @ 11:00 UTC

May-22@
16:00 UTC

May-22 @ 16:00 UTC

FM221100 11016G23KT 5SM RA BR OVC006

From

From Standard forecast or significant change

Wind
  • 110° at 16 KTS
  • {Gusting to 23 KTS
Conditions
Rain, Mist
Cloud Levels
  • Overcast at 600' AGL

May-22@
16:00 UTC

May-22 @ 16:00 UTC

May-22@
19:00 UTC

May-22 @ 19:00 UTC

FM221600 16014G21KT 6SM -RA BR OVC009

From

From Standard forecast or significant change

Wind
  • 160° at 14 KTS
  • {Gusting to 21 KTS
Conditions
Light Rain, Mist
Cloud Levels
  • Overcast at 900' AGL

May-22@
19:00 UTC

May-22 @ 19:00 UTC

May-23@
00:00 UTC

May-23 @ 00:00 UTC

FM221900 20018G26KT P6SM OVC018

From

From Standard forecast or significant change

Wind
  • 200° at 18 KTS
  • {Gusting to 26 KTS
Cloud Levels
  • Overcast at 1,800' AGL